Time;durP1;ratioP1;P1;durP2;ratioP2;P2;SDS_P1;SDS_P2;PMS_P1;PMS_P2;Temp;Humidity;BMP_temperature;BMP_pressure;BME280_temperature;BME280_humidity;BME280_pressure;Samples;Min_cycle;Max_cycle;Signal;HPM_P1;HPM_P2
2021/03/12 06:48:37;;;;;;;83.82;50.73;;;;;;;-0.82;87.26;97016.77;1847349;76;28150;-58
2021/03/12 06:51:28;;;;;;;83.42;52.93;;;;;;;-0.87;87.22;97018.81;1751469;82;21421;-58
2021/03/12 06:54:06;;;;;;;61.58;37.88;;;;;;;-0.81;87.19;97017.06;1722421;82;21491;-57
2021/03/12 06:56:41;;;;;;;56.83;34.40;;;;;;;-0.74;87.12;97015.86;1731813;82;21274;-60
2021/03/12 06:59:31;;;;;;;37.65;27.05;;;;;;;-0.63;87.04;97012.84;1743007;81;21489;-57
2021/03/12 07:02:06;;;;;;;37.93;29.90;;;;;;;-0.53;86.90;97006.41;1731124;82;20958;-59
2021/03/12 07:04:38;;;;;;;35.92;27.98;;;;;;;-0.44;86.79;97003.63;1784021;80;20986;-62
2021/03/12 07:07:41;;;;;;;33.40;27.98;;;;;;;-0.32;86.69;97017.46;1872849;76;27912;-56
2021/03/12 07:10:35;;;;;;;33.55;26.55;;;;;;;-0.30;86.57;97025.91;1841279;77;21445;-60
2021/03/12 07:13:12;;;;;;;29.57;24.80;;;;;;;-0.21;86.45;97023.11;1835872;77;21373;-57
2021/03/12 07:15:42;;;;;;;30.85;25.00;;;;;;;-0.16;86.29;97026.33;1811625;77;21430;-60
2021/03/12 07:18:12;;;;;;;30.75;25.85;;;;;;;-0.12;86.22;97028.77;1842451;77;20947;-59
2021/03/12 07:20:42;;;;;;;31.90;26.87;;;;;;;-0.08;86.11;97038.55;1844321;77;20919;-60
2021/03/12 07:23:15;;;;;;;33.50;25.68;;;;;;;-0.01;86.05;97037.84;1844478;77;20900;-60
2021/03/12 07:25:45;;;;;;;34.98;27.65;;;;;;;0.03;85.97;97039.97;1844408;77;21113;-62
2021/03/12 07:28:15;;;;;;;36.53;28.95;;;;;;;0.07;85.94;97026.09;1843898;77;21579;-58
2021/03/12 07:31:05;;;;;;;36.10;27.42;;;;;;;0.22;85.91;97025.44;1872635;74;28164;-64
2021/03/12 07:33:36;;;;;;;38.02;28.30;;;;;;;0.20;85.78;97027.02;1775639;80;20965;-60
2021/03/12 07:36:06;;;;;;;35.30;27.20;;;;;;;0.22;85.71;97018.34;1798197;79;21366;-60
2021/03/12 07:38:50;;;;;;;36.80;28.25;;;;;;;0.24;85.67;97027.30;1814165;78;21596;-59
2021/03/12 07:41:20;;;;;;;43.87;32.95;;;;;;;0.27;85.65;97029.45;1782615;79;21205;-57
2021/03/12 07:43:56;;;;;;;52.27;36.42;;;;;;;0.29;85.66;97027.36;1740885;82;21167;-60
2021/03/12 07:46:32;;;;;;;51.35;37.40;;;;;;;0.32;85.60;97028.98;1744684;82;21220;-61
2021/03/12 07:49:16;;;;;;;59.65;39.42;;;;;;;0.34;85.57;97030.84;1744699;82;22776;-61
2021/03/12 07:51:46;;;;;;;45.23;32.78;;;;;;;0.38;85.58;97028.50;1754037;81;21045;-58
2021/03/12 07:54:17;;;;;;;40.90;29.48;;;;;;;0.42;85.54;97017.24;1745129;82;21528;-60
2021/03/12 07:56:51;;;;;;;38.13;28.80;;;;;;;0.45;85.54;97019.88;1717067;82;21529;-62
2021/03/12 07:59:55;;;;;;;39.50;28.52;;;;;;;0.50;85.58;97027.83;1768871;81;21600;-59
2021/03/12 08:02:56;;;;;;;31.07;24.65;;;;;;;0.53;85.61;97027.34;1755117;80;22497;-57
2021/03/12 08:05:44;;;;;;;34.80;27.85;;;;;;;0.57;85.64;97036.33;1814802;79;21164;-58
2021/03/12 08:08:38;;;;;;;30.25;25.48;;;;;;;0.61;85.68;97042.71;1783338;80;21544;-56
2021/03/12 08:11:34;;;;;;;30.77;25.60;;;;;;;0.62;85.67;97034.55;1814147;79;21584;-58
2021/03/12 08:14:20;;;;;;;34.48;25.50;;;;;;;0.65;85.69;97044.59;1775543;80;21590;-58
2021/03/12 08:17:05;;;;;;;24.05;20.88;;;;;;;0.69;85.69;97039.61;1756339;79;22159;-60
2021/03/12 08:19:37;;;;;;;26.95;24.05;;;;;;;0.71;85.67;97048.05;1749192;79;20946;-61
2021/03/12 08:22:30;;;;;;;28.35;23.15;;;;;;;0.76;85.67;97041.52;1753584;81;21472;-58
2021/03/12 08:25:00;;;;;;;28.73;24.32;;;;;;;0.79;85.60;97033.63;1741895;82;21608;-64
2021/03/12 08:27:49;;;;;;;27.75;24.00;;;;;;;0.89;85.61;97045.07;1859844;76;28709;-61
2021/03/12 08:30:43;;;;;;;27.30;23.62;;;;;;;0.86;85.52;97040.29;1771382;79;21469;-62
2021/03/12 08:33:29;;;;;;;32.23;25.45;;;;;;;0.87;85.46;97047.17;1824388;78;21218;-65
2021/03/12 08:36:06;;;;;;;25.92;22.73;;;;;;;0.90;85.45;97041.37;1760347;79;21623;-64
2021/03/12 08:38:37;;;;;;;28.95;22.95;;;;;;;0.89;85.38;97022.66;1729256;82;21117;-58
2021/03/12 08:41:29;;;;;;;24.72;21.45;;;;;;;0.87;85.39;97033.98;1742479;80;21019;-58
2021/03/12 08:44:13;;;;;;;25.50;22.77;;;;;;;0.88;85.39;97044.78;1700906;82;21018;-61
2021/03/12 08:47:00;;;;;;;29.75;23.50;;;;;;;0.88;85.39;97052.70;1772774;81;22461;-62
2021/03/12 08:49:31;;;;;;;25.97;23.18;;;;;;;0.92;85.38;97051.14;1745332;82;21022;-66
2021/03/12 08:52:01;;;;;;;28.25;24.45;;;;;;;0.93;85.33;97060.65;1745523;82;21038;-61
2021/03/12 08:54:31;;;;;;;31.68;23.73;;;;;;;0.93;85.34;97046.15;1772797;80;21009;-61
2021/03/12 08:57:21;;;;;;;27.22;23.65;;;;;;;1.02;85.34;97043.83;1878284;76;22641;-61
2021/03/12 09:00:08;;;;;;;22.87;19.42;;;;;;;1.01;85.28;97043.06;1856271;76;20980;-58
2021/03/12 09:03:16;;;;;;;27.73;23.45;;;;;;;1.05;85.19;97051.25;1858554;77;21615;-58
2021/03/12 09:05:52;;;;;;;25.23;20.95;;;;;;;1.06;85.14;97033.84;1833053;77;20963;-58
2021/03/12 09:08:25;;;;;;;23.35;19.30;;;;;;;1.08;85.08;97034.41;1832445;78;21549;-60
2021/03/12 09:11:11;;;;;;;19.45;16.85;;;;;;;1.09;85.05;97032.03;1832985;77;21465;-59
2021/03/12 09:13:44;;;;;;;25.12;20.00;;;;;;;1.11;85.00;97027.80;1836842;77;20896;-59
2021/03/12 09:16:24;;;;;;;20.70;18.15;;;;;;;1.09;85.05;97021.48;1842026;77;21373;-59
2021/03/12 09:18:54;;;;;;;23.18;19.70;;;;;;;1.12;85.03;97025.45;1811717;77;21074;-58
2021/03/12 09:21:27;;;;;;;17.35;15.48;;;;;;;1.15;85.01;97023.13;1873267;76;21002;-59
2021/03/12 09:23:59;;;;;;;17.92;15.98;;;;;;;1.17;84.97;97019.70;1804583;79;20980;-58
2021/03/12 09:26:35;;;;;;;17.15;15.25;;;;;;;1.17;84.95;97024.98;1801376;79;21102;-61
2021/03/12 09:29:15;;;;;;;16.05;13.80;;;;;;;1.22;84.92;97022.38;1869186;76;28469;-58
2021/03/12 09:31:44;;;;;;;15.20;13.25;;;;;;;1.18;84.92;97010.72;1833676;76;21572;-61
2021/03/12 09:34:18;;;;;;;15.53;13.30;;;;;;;1.22;84.92;97013.14;1813733;77;22287;-63
2021/03/12 09:36:58;;;;;;;15.93;13.53;;;;;;;1.22;84.87;97006.55;1825728;76;21609;-58
2021/03/12 09:39:48;;;;;;;14.35;12.95;;;;;;;1.25;84.83;97007.34;1811605;77;21634;-57
2021/03/12 09:42:31;;;;;;;12.63;11.05;;;;;;;1.34;84.76;97015.05;1913261;74;22624;-57
2021/03/12 09:45:21;;;;;;;13.13;11.73;;;;;;;1.33;84.69;97015.31;1853830;76;20963;-58
2021/03/12 09:47:51;;;;;;;14.80;12.88;;;;;;;1.37;84.62;97008.46;1798978;79;21151;-58
2021/03/12 09:50:24;;;;;;;15.95;12.68;;;;;;;1.42;84.59;97002.41;1814827;79;21022;-58
2021/03/12 09:52:56;;;;;;;18.12;14.87;;;;;;;1.46;84.42;97010.12;1790388;79;21544;-60
2021/03/12 09:55:43;;;;;;;18.00;14.25;;;;;;;1.46;84.39;97012.75;1751959;82;21642;-61
2021/03/12 09:58:13;;;;;;;11.55;9.95;;;;;;;1.49;84.29;97013.54;1803644;78;21080;-62
2021/03/12 10:00:43;;;;;;;13.40;10.88;;;;;;;1.51;84.21;97023.34;1809250;78;22594;-63
2021/03/12 10:03:13;;;;;;;11.33;10.18;;;;;;;1.50;84.13;97021.73;1776629;79;20979;-61
2021/03/12 10:05:50;;;;;;;11.53;10.30;;;;;;;1.49;84.06;97028.05;1786338;79;20943;-57
2021/03/12 10:08:25;;;;;;;10.03;8.95;;;;;;;1.43;84.03;97030.41;1773616;79;20979;-60
2021/03/12 10:10:58;;;;;;;9.43;7.92;;;;;;;1.40;84.13;97026.44;1775799;80;21430;-58
2021/03/12 10:13:30;;;;;;;12.20;9.80;;;;;;;1.43;84.04;97022.48;1782071;80;22169;-60
2021/03/12 10:16:12;;;;;;;10.70;9.53;;;;;;;1.45;84.06;97020.39;1782066;80;21003;-61
2021/03/12 10:18:58;;;;;;;10.78;9.65;;;;;;;1.53;84.00;97021.23;1871828;76;22386;-59
2021/03/12 10:21:26;;;;;;;10.72;9.43;;;;;;;1.48;83.96;97019.88;1819180;78;21542;-58
2021/03/12 10:23:54;;;;;;;10.28;8.48;;;;;;;1.49;83.91;97015.66;1819028;78;22095;-57
2021/03/12 10:26:26;;;;;;;11.68;8.18;;;;;;;1.49;83.86;97016.18;1826704;76;21175;-57
2021/03/12 10:28:55;;;;;;;14.87;11.93;;;;;;;1.49;83.81;97018.30;1864900;76;21155;-59
2021/03/12 10:31:24;;;;;;;9.83;7.80;;;;;;;1.49;83.82;97009.06;1810734;78;21012;-58
2021/03/12 10:33:52;;;;;;;12.50;10.18;;;;;;;1.51;83.78;97016.74;1846122;76;21196;-57
2021/03/12 10:36:21;;;;;;;8.18;6.67;;;;;;;1.48;83.79;97011.97;1847642;77;21339;-62
2021/03/12 10:38:50;;;;;;;14.95;8.98;;;;;;;1.49;83.79;97010.38;1823462;77;21379;-60
2021/03/12 10:41:25;;;;;;;11.45;7.97;;;;;;;1.51;83.79;97003.00;1836840;77;21001;-57
2021/03/12 10:44:05;;;;;;;11.18;7.50;;;;;;;1.53;83.76;97018.59;1848026;77;21076;-58
2021/03/12 10:46:35;;;;;;;12.00;7.90;;;;;;;1.54;83.74;97007.77;1852589;77;21168;-57
2021/03/12 10:49:04;;;;;;;15.78;7.62;;;;;;;1.55;83.70;97011.22;1783089;80;22086;-59
2021/03/12 10:51:40;;;;;;;8.60;6.37;;;;;;;1.59;83.68;97009.12;1815087;79;21108;-57
2021/03/12 10:54:12;;;;;;;;;;;;;;;1.61;83.63;97019.41;1817668;79;21532;-58
2021/03/12 10:56:48;;;;;;;9.93;8.00;;;;;;;1.64;83.62;97015.75;1776510;80;20096;-60
2021/03/12 10:59:17;;;;;;;10.82;7.78;;;;;;;1.70;83.53;97014.71;1783081;80;21501;-58
2021/03/12 11:01:48;;;;;;;8.58;6.55;;;;;;;1.70;83.44;97017.88;1781383;80;21216;-63
2021/03/12 11:04:18;;;;;;;7.30;6.15;;;;;;;1.70;83.32;97013.91;1781881;80;21236;-62
2021/03/12 11:06:48;;;;;;;9.60;6.45;;;;;;;1.69;83.29;97017.10;1780820;80;21006;-59
2021/03/12 11:09:18;;;;;;;8.10;5.97;;;;;;;1.68;83.26;97012.86;1767795;80;21699;-61
2021/03/12 11:11:48;;;;;;;12.10;7.50;;;;;;;1.69;83.24;97016.30;1764078;80;21619;-57
2021/03/12 11:14:17;;;;;;;9.10;6.70;;;;;;;1.69;83.24;97004.42;1780928;80;22413;-61
2021/03/12 11:16:48;;;;;;;8.83;6.35;;;;;;;1.69;83.21;97014.98;1814904;79;21025;-58
2021/03/12 11:19:17;;;;;;;7.03;5.65;;;;;;;1.73;83.19;97010.77;1782940;80;21020;-62
2021/03/12 11:21:47;;;;;;;8.53;5.70;;;;;;;1.74;83.14;97020.29;1815190;79;21536;-60
2021/03/12 11:24:16;;;;;;;9.95;5.72;;;;;;;1.76;83.07;97014.22;1779741;79;21000;-59
2021/03/12 11:26:44;;;;;;;6.10;4.72;;;;;;;1.78;83.09;97018.72;1761581;80;21382;-57
2021/03/12 11:29:13;;;;;;;5.80;4.92;;;;;;;1.82;83.01;97023.73;1760180;80;21854;-57
2021/03/12 11:31:44;;;;;;;5.90;4.95;;;;;;;1.87;82.95;97023.77;1770866;81;21621;-59
2021/03/12 11:34:13;;;;;;;7.78;6.17;;;;;;;1.88;82.81;97037.25;1773783;78;21187;-60
2021/03/12 11:36:46;;;;;;;7.45;6.22;;;;;;;1.90;82.77;97028.54;1785721;79;21587;-57
2021/03/12 11:39:17;;;;;;;7.58;6.12;;;;;;;1.95;82.71;97027.24;1772457;79;21370;-62
2021/03/12 11:41:47;;;;;;;7.03;4.92;;;;;;;2.00;82.60;97033.88;1822274;78;21121;-63
2021/03/12 11:44:16;;;;;;;11.08;8.20;;;;;;;2.02;82.45;97027.80;1828283;78;21160;-59
2021/03/12 11:46:45;;;;;;;10.58;7.97;;;;;;;2.05;82.38;97021.98;1828179;78;21179;-66
2021/03/12 11:49:13;;;;;;;9.48;6.87;;;;;;;2.07;82.28;97035.75;1828515;78;20986;-60
2021/03/12 11:51:42;;;;;;;12.90;8.63;;;;;;;2.08;82.16;97036.00;1800932;78;21978;-63
2021/03/12 11:54:12;;;;;;;9.20;5.80;;;;;;;2.07;82.01;97029.91;1779064;79;21388;-59
2021/03/12 11:56:40;;;;;;;4.85;3.08;;;;;;;1.99;81.98;97040.19;1781839;80;22124;-61
2021/03/12 11:59:11;;;;;;;4.55;3.52;;;;;;;1.95;82.07;97051.81;1813019;79;21200;-58
2021/03/12 12:01:44;;;;;;;9.40;6.37;;;;;;;1.95;82.07;97037.81;1768344;79;21639;-57
2021/03/12 12:04:24;;;;;;;3.60;2.85;;;;;;;1.98;82.05;97042.55;1764204;79;21499;-61
2021/03/12 12:06:55;;;;;;;3.20;2.47;;;;;;;1.95;82.07;97043.89;1812946;79;21049;-58
2021/03/12 12:09:23;;;;;;;5.30;4.17;;;;;;;1.93;82.13;97041.23;1780771;80;21168;-59
2021/03/12 12:11:51;;;;;;;2.60;2.40;;;;;;;1.91;82.10;97038.03;1791193;79;21200;-65
2021/03/12 12:14:21;;;;;;;3.85;3.25;;;;;;;1.87;82.12;97040.93;1772645;81;21217;-67
2021/03/12 12:16:50;;;;;;;2.30;2.10;;;;;;;1.86;82.16;97042.00;1788125;79;21137;-68
2021/03/12 12:19:19;;;;;;;2.90;2.65;;;;;;;1.84;82.22;97033.00;1771226;79;21197;-63
2021/03/12 12:21:47;;;;;;;3.70;2.75;;;;;;;1.86;82.28;97039.36;1764431;80;21231;-61
2021/03/12 12:24:18;;;;;;;2.98;2.55;;;;;;;1.86;82.26;97034.84;1822384;78;21044;-59
2021/03/12 12:26:45;;;;;;;3.55;2.60;;;;;;;1.87;82.35;97042.25;1857282;77;21540;-62
2021/03/12 12:29:14;;;;;;;4.05;3.17;;;;;;;1.90;82.34;97045.70;1856578;77;22742;-58
2021/03/12 12:31:42;;;;;;;3.33;3.02;;;;;;;1.92;82.41;97046.23;1814126;77;21151;-58
2021/03/12 12:34:11;;;;;;;3.25;2.95;;;;;;;1.96;82.43;97040.18;1819739;78;21212;-59
2021/03/12 12:36:39;;;;;;;4.15;3.12;;;;;;;2.03;82.38;97040.73;1834726;77;21172;-58
2021/03/12 12:39:09;;;;;;;4.83;3.50;;;;;;;2.05;82.44;97051.84;1831049;78;21577;-58
2021/03/12 12:41:40;;;;;;;5.35;4.12;;;;;;;2.08;82.49;97037.31;1814763;78;21838;-58
2021/03/12 12:44:09;;;;;;;4.95;3.75;;;;;;;2.14;82.52;97040.27;1807400;79;21157;-59
2021/03/12 12:46:39;;;;;;;4.53;3.77;;;;;;;2.22;82.52;97040.27;1807266;79;21014;-63
2021/03/12 12:49:10;;;;;;;7.42;4.05;;;;;;;2.33;82.50;97034.75;1807262;79;20923;-58
2021/03/12 12:51:39;;;;;;;5.65;3.72;;;;;;;2.47;82.40;97037.70;1740786;82;21533;-64
2021/03/12 12:54:10;;;;;;;4.00;3.45;;;;;;;2.62;82.31;97041.16;1787331;80;22008;-63
2021/03/12 12:56:40;;;;;;;4.33;3.83;;;;;;;2.81;82.12;97060.48;1787320;80;21481;-59
2021/03/12 12:59:10;;;;;;;4.85;4.17;;;;;;;2.96;81.77;97061.83;1740754;82;21007;-56
2021/03/12 13:01:38;;;;;;;5.50;3.87;;;;;;;3.11;81.37;97060.52;1799262;79;21022;-61
2021/03/12 13:04:08;;;;;;;3.75;3.12;;;;;;;3.31;81.07;97053.89;1848216;77;21188;-63
2021/03/12 13:06:36;;;;;;;4.65;4.10;;;;;;;3.49;80.85;97053.33;1778503;80;22601;-64
2021/03/12 13:09:05;;;;;;;5.62;4.30;;;;;;;3.63;80.30;97054.36;1848469;77;20970;-61
2021/03/12 13:11:34;;;;;;;5.37;4.00;;;;;;;3.78;79.76;97055.66;1778708;80;21194;-61
2021/03/12 13:14:04;;;;;;;5.70;4.33;;;;;;;3.98;79.70;97062.20;1847858;77;21187;-65
2021/03/12 13:16:33;;;;;;;6.40;4.47;;;;;;;4.17;78.72;97066.94;1848242;77;21325;-59
2021/03/12 13:19:02;;;;;;;6.08;4.80;;;;;;;4.33;78.23;97057.84;1763936;79;22015;-59
2021/03/12 13:21:32;;;;;;;5.20;4.67;;;;;;;4.50;77.89;97052.99;1753086;80;20960;-57
2021/03/12 13:23:59;;;;;;;5.70;5.10;;;;;;;4.64;77.50;97048.11;1832682;78;21450;-65
2021/03/12 13:26:28;;;;;;;7.20;5.17;;;;;;;4.77;76.80;97048.84;1832101;77;21752;-59
2021/03/12 13:28:57;;;;;;;5.37;4.62;;;;;;;4.97;76.82;97049.77;1827451;77;21553;-60
2021/03/12 13:31:25;;;;;;;5.28;4.28;;;;;;;5.22;76.61;97057.53;1777326;80;22138;-59
2021/03/12 13:33:53;;;;;;;5.20;4.62;;;;;;;5.37;75.98;97052.10;1819294;78;21627;-64
2021/03/12 13:36:24;;;;;;;7.67;4.58;;;;;;;5.37;74.85;97056.86;1794505;78;21186;-58
2021/03/12 13:38:52;;;;;;;5.65;4.60;;;;;;;5.29;74.93;97061.98;1735341;79;21211;-62
2021/03/12 13:41:20;;;;;;;5.30;4.50;;;;;;;5.17;75.31;97068.98;1798932;79;21675;-62
2021/03/12 13:43:48;;;;;;;6.53;5.22;;;;;;;5.14;75.35;97066.87;1799065;79;22100;-63
2021/03/12 13:46:16;;;;;;;6.37;5.03;;;;;;;5.23;75.25;97062.55;1799190;79;21565;-63
2021/03/12 13:48:45;;;;;;;6.40;5.80;;;;;;;5.47;75.27;97068.72;1799952;79;21032;-62
2021/03/12 13:51:14;;;;;;;6.45;5.08;;;;;;;5.69;74.76;97073.58;1799942;79;21486;-65
2021/03/12 13:53:42;;;;;;;6.00;5.17;;;;;;;5.84;74.46;97059.34;1799939;79;21084;-59
2021/03/12 13:56:10;;;;;;;5.37;4.83;;;;;;;5.94;74.27;97064.56;1799905;79;21887;-61
2021/03/12 13:58:43;;;;;;;6.40;5.35;;;;;;;6.09;73.74;97059.09;1801060;78;21153;-59
2021/03/12 14:01:11;;;;;;;6.30;5.53;;;;;;;6.17;72.94;97075.20;1822367;77;20926;-58
2021/03/12 14:03:40;;;;;;;5.72;5.22;;;;;;;6.26;72.58;97075.38;1845064;77;21176;-64
2021/03/12 14:06:09;;;;;;;5.83;5.22;;;;;;;6.12;72.44;97079.80;1808162;77;21104;-58
2021/03/12 14:08:37;;;;;;;6.20;5.58;;;;;;;5.90;72.77;97086.94;1799803;78;21588;-63
2021/03/12 14:11:05;;;;;;;8.38;6.30;;;;;;;5.72;73.23;97090.82;1817897;78;21552;-61
2021/03/12 14:13:35;;;;;;;7.47;6.67;;;;;;;5.61;73.62;97097.28;1800052;78;21019;-63
2021/03/12 14:16:09;;;;;;;8.03;7.00;;;;;;;5.50;73.93;97100.05;1749586;80;21216;-62
2021/03/12 14:18:38;;;;;;;7.05;6.35;;;;;;;5.42;74.20;97105.95;1835208;77;21608;-61
2021/03/12 14:21:07;;;;;;;7.67;6.17;;;;;;;5.41;74.39;97104.37;1847897;77;21355;-57
2021/03/12 14:23:35;;;;;;;6.78;6.03;;;;;;;5.44;74.52;97107.02;1847728;77;21663;-61
2021/03/12 14:26:03;;;;;;;6.90;5.45;;;;;;;5.51;74.60;97102.17;1848115;77;21509;-60
2021/03/12 14:28:50;;;;;;;7.87;6.20;;;;;;;5.56;74.49;97115.39;1847965;77;21164;-64
2021/03/12 14:31:19;;;;;;;7.80;6.30;;;;;;;5.54;74.46;97122.31;1848079;77;21192;-60
2021/03/12 14:33:47;;;;;;;7.47;6.72;;;;;;;5.49;74.58;97125.01;1848020;77;21407;-60
2021/03/12 14:36:15;;;;;;;8.50;6.37;;;;;;;5.43;74.61;97120.82;1848985;77;21164;-65
2021/03/12 14:38:44;;;;;;;7.33;6.10;;;;;;;5.36;74.69;97120.34;1849156;77;21505;-61
2021/03/12 14:41:12;;;;;;;6.65;5.87;;;;;;;5.30;74.86;97118.02;1849113;77;21469;-64
2021/03/12 14:43:42;;;;;;;7.40;6.35;;;;;;;5.21;75.03;97134.25;1849154;77;21072;-60
2021/03/12 14:46:12;;;;;;;7.20;5.92;;;;;;;5.17;75.17;97139.33;1807327;77;23262;-60
2021/03/12 14:48:48;;;;;;;10.32;7.10;;;;;;;5.16;75.31;97142.27;1805246;79;21159;-60
2021/03/12 14:51:17;;;;;;;7.15;6.25;;;;;;;5.14;75.32;97142.53;1821733;78;21002;-61
2021/03/12 14:53:45;;;;;;;8.28;6.37;;;;;;;5.11;75.45;97144.40;1840184;77;21497;-60
2021/03/12 14:56:13;;;;;;;10.10;6.20;;;;;;;5.09;75.50;97139.91;1840238;78;21441;-59
2021/03/12 14:58:41;;;;;;;8.23;6.70;;;;;;;5.07;75.75;97142.05;1840127;78;22125;-63
2021/03/12 15:01:11;;;;;;;7.72;6.25;;;;;;;5.06;75.87;97151.09;1829120;77;21092;-57
2021/03/12 15:03:42;;;;;;;7.15;6.35;;;;;;;5.05;76.08;97146.84;1857282;77;21485;-66
2021/03/12 15:06:10;;;;;;;8.15;6.20;;;;;;;5.03;76.09;97151.63;1857402;77;21110;-65
2021/03/12 15:08:40;;;;;;;7.60;6.62;;;;;;;5.00;76.13;97153.50;1857305;77;20974;-64
2021/03/12 15:11:08;;;;;;;9.83;5.90;;;;;;;4.96;76.35;97157.78;1857332;77;22365;-62
2021/03/12 15:13:37;;;;;;;9.03;6.22;;;;;;;4.95;76.46;97153.52;1857214;77;21005;-63
2021/03/12 15:16:07;;;;;;;8.83;7.92;;;;;;;4.95;76.66;97158.83;1857275;77;21579;-61
2021/03/12 15:18:35;;;;;;;9.35;8.28;;;;;;;4.97;76.68;97158.58;1854852;77;21494;-60
2021/03/12 15:21:05;;;;;;;7.78;6.62;;;;;;;4.97;76.68;97159.34;1846997;77;21062;-63
2021/03/12 15:23:33;;;;;;;7.42;6.62;;;;;;;4.95;76.78;97171.30;1846825;77;21364;-62
2021/03/12 15:26:02;;;;;;;8.33;6.55;;;;;;;4.91;76.82;97167.09;1846759;77;20927;-60
2021/03/12 15:28:31;;;;;;;6.95;6.25;;;;;;;4.85;76.81;97161.00;1846832;77;21077;-60
2021/03/12 15:30:59;;;;;;;8.40;6.70;;;;;;;4.83;76.87;97170.30;1843531;77;20935;-57
2021/03/12 15:33:33;;;;;;;7.45;6.65;;;;;;;4.79;76.96;97177.23;1832919;78;21438;-60
2021/03/12 15:36:06;;;;;;;7.95;7.15;;;;;;;4.80;77.04;97183.58;1832749;77;21477;-61
2021/03/12 15:38:44;;;;;;;8.03;7.17;;;;;;;4.82;77.15;97182.00;1825848;78;21505;-64
2021/03/12 15:41:15;;;;;;;9.20;7.08;;;;;;;4.79;77.24;97178.55;1809245;79;21185;-65
2021/03/12 15:43:44;;;;;;;7.85;6.40;;;;;;;4.78;77.33;97183.06;1809356;78;20919;-61
2021/03/12 15:46:13;;;;;;;7.67;6.87;;;;;;;4.75;77.39;97186.28;1809391;79;21109;-64
2021/03/12 15:48:43;;;;;;;8.40;7.53;;;;;;;4.72;77.48;97180.19;1809403;79;22087;-65
2021/03/12 15:51:18;;;;;;;8.98;7.62;;;;;;;4.70;77.59;97183.64;1806004;79;20944;-64
2021/03/12 15:53:48;;;;;;;9.38;7.47;;;;;;;4.71;77.64;97187.09;1809184;79;21545;-60
2021/03/12 15:56:17;;;;;;;9.23;7.75;;;;;;;4.71;77.61;97192.41;1809431;79;21537;-62
2021/03/12 15:58:47;;;;;;;8.73;7.40;;;;;;;4.66;77.56;97189.21;1808451;79;21023;-62
2021/03/12 16:01:15;;;;;;;7.10;6.40;;;;;;;4.63;77.66;97201.71;1809488;78;21727;-62
2021/03/12 16:03:45;;;;;;;7.75;6.60;;;;;;;4.63;77.56;97221.61;1809289;79;21062;-59
2021/03/12 16:06:13;;;;;;;6.20;5.60;;;;;;;4.58;77.45;97220.81;1810046;79;21508;-60
2021/03/12 16:08:43;;;;;;;6.10;5.45;;;;;;;4.53;77.30;97218.17;1809508;79;21426;-58
2021/03/12 16:11:14;;;;;;;5.78;4.37;;;;;;;4.45;77.23;97220.84;1809520;79;21073;-62
2021/03/12 16:13:42;;;;;;;4.40;3.40;;;;;;;4.37;77.13;97223.27;1809489;79;22086;-61
2021/03/12 16:16:12;;;;;;;4.53;3.40;;;;;;;4.29;77.18;97218.49;1809580;79;21109;-60
2021/03/12 16:18:45;;;;;;;8.08;4.12;;;;;;;4.18;77.29;97219.58;1811489;78;21616;-56
2021/03/12 16:21:31;;;;;;;4.50;3.40;;;;;;;4.14;77.42;97229.94;1831486;78;20918;-59
2021/03/12 16:24:19;;;;;;;5.03;3.87;;;;;;;4.09;77.61;97236.04;1832781;78;21490;-61
2021/03/12 16:27:06;;;;;;;4.50;3.80;;;;;;;4.04;77.80;97247.16;1832752;78;22100;-59
2021/03/12 16:29:40;;;;;;;5.58;3.87;;;;;;;3.98;78.01;97247.69;1832730;78;21413;-61
2021/03/12 16:32:12;;;;;;;4.35;3.95;;;;;;;3.93;78.22;97244.27;1800439;78;21006;-62
2021/03/12 16:34:41;;;;;;;4.92;3.90;;;;;;;3.91;78.65;97239.77;1832706;78;20912;-66
2021/03/12 16:37:11;;;;;;;5.62;3.92;;;;;;;3.86;78.99;97248.48;1830957;78;21054;-60
2021/03/12 16:39:40;;;;;;;4.65;3.22;;;;;;;3.81;79.62;97243.73;1832731;78;22556;-59
2021/03/12 16:42:08;;;;;;;5.35;3.10;;;;;;;3.76;79.73;97249.83;1832628;77;21600;-59
2021/03/12 16:44:39;;;;;;;4.60;3.40;;;;;;;3.75;80.08;97255.36;1832758;78;21003;-61
2021/03/12 16:47:08;;;;;;;5.40;3.90;;;;;;;3.74;80.28;97262.54;1832777;77;21153;-59
2021/03/12 16:49:36;;;;;;;4.70;3.25;;;;;;;3.74;80.56;97269.16;1832772;77;21191;-60
2021/03/12 16:52:06;;;;;;;4.85;3.35;;;;;;;3.74;80.52;97274.98;1832767;78;22187;-60
2021/03/12 16:54:36;;;;;;;6.47;3.70;;;;;;;3.74;80.54;97283.73;1832646;78;21145;-59
2021/03/12 16:57:06;;;;;;;8.08;5.22;;;;;;;3.73;80.59;97290.59;1832672;78;21446;-63
2021/03/12 16:59:34;;;;;;;3.77;3.20;;;;;;;3.72;80.63;97293.77;1832626;77;21008;-59
2021/03/12 17:02:02;;;;;;;5.25;3.33;;;;;;;3.74;80.74;97296.17;1832662;78;21066;-59
2021/03/12 17:04:31;;;;;;;4.60;3.77;;;;;;;3.73;80.80;97300.67;1832668;78;22687;-61
